sensor_id;sensor_type;location;lat;lon;timestamp;P1;durP1;ratioP1;P2;durP2;ratioP2
18259;SDS011;9256;52.236;5.712;2023-05-07T00:00:46;9.55;;;5.95;;
18259;SDS011;9256;52.236;5.712;2023-05-07T00:03:13;8.80;;;5.93;;
18259;SDS011;9256;52.236;5.712;2023-05-07T00:05:41;10.10;;;5.80;;
18259;SDS011;9256;52.236;5.712;2023-05-07T00:08:08;12.90;;;5.75;;
18259;SDS011;9256;52.236;5.712;2023-05-07T00:10:35;9.55;;;5.88;;
18259;SDS011;9256;52.236;5.712;2023-05-07T00:13:02;9.75;;;5.90;;
18259;SDS011;9256;52.236;5.712;2023-05-07T00:15:29;10.35;;;5.95;;
18259;SDS011;9256;52.236;5.712;2023-05-07T00:17:56;10.63;;;6.07;;
18259;SDS011;9256;52.236;5.712;2023-05-07T00:20:24;10.57;;;5.90;;
18259;SDS011;9256;52.236;5.712;2023-05-07T00:22:52;11.68;;;6.03;;
18259;SDS011;9256;52.236;5.712;2023-05-07T00:25:19;11.05;;;5.72;;
18259;SDS011;9256;52.236;5.712;2023-05-07T00:27:46;9.73;;;6.03;;
18259;SDS011;9256;52.236;5.712;2023-05-07T00:30:13;10.02;;;6.10;;
18259;SDS011;9256;52.236;5.712;2023-05-07T00:32:41;10.57;;;6.50;;
18259;SDS011;9256;52.236;5.712;2023-05-07T00:35:10;10.27;;;5.82;;
18259;SDS011;9256;52.236;5.712;2023-05-07T00:37:37;11.63;;;6.00;;
18259;SDS011;9256;52.236;5.712;2023-05-07T00:40:06;10.10;;;6.40;;
18259;SDS011;9256;52.236;5.712;2023-05-07T00:42:34;10.70;;;6.32;;
18259;SDS011;9256;52.236;5.712;2023-05-07T00:45:01;12.80;;;7.03;;
18259;SDS011;9256;52.236;5.712;2023-05-07T00:47:29;14.45;;;8.20;;
18259;SDS011;9256;52.236;5.712;2023-05-07T00:49:56;11.68;;;6.78;;
18259;SDS011;9256;52.236;5.712;2023-05-07T00:52:23;13.38;;;8.27;;
18259;SDS011;9256;52.236;5.712;2023-05-07T00:54:52;13.13;;;7.80;;
18259;SDS011;9256;52.236;5.712;2023-05-07T00:57:21;11.82;;;7.55;;
18259;SDS011;9256;52.236;5.712;2023-05-07T00:59:50;12.55;;;6.97;;
18259;SDS011;9256;52.236;5.712;2023-05-07T01:02:18;11.50;;;7.15;;
18259;SDS011;9256;52.236;5.712;2023-05-07T01:04:45;14.85;;;7.20;;
18259;SDS011;9256;52.236;5.712;2023-05-07T01:07:12;10.63;;;6.70;;
18259;SDS011;9256;52.236;5.712;2023-05-07T01:09:39;10.43;;;6.75;;
18259;SDS011;9256;52.236;5.712;2023-05-07T01:12:06;13.05;;;7.07;;
18259;SDS011;9256;52.236;5.712;2023-05-07T01:14:35;15.50;;;7.32;;
18259;SDS011;9256;52.236;5.712;2023-05-07T01:17:02;10.90;;;6.50;;
18259;SDS011;9256;52.236;5.712;2023-05-07T01:19:29;12.13;;;7.10;;
18259;SDS011;9256;52.236;5.712;2023-05-07T01:22:00;11.35;;;7.07;;
18259;SDS011;9256;52.236;5.712;2023-05-07T01:24:31;11.00;;;7.00;;
18259;SDS011;9256;52.236;5.712;2023-05-07T01:26:58;14.80;;;8.02;;
18259;SDS011;9256;52.236;5.712;2023-05-07T01:29:26;12.25;;;7.57;;
18259;SDS011;9256;52.236;5.712;2023-05-07T01:31:53;16.23;;;8.57;;
18259;SDS011;9256;52.236;5.712;2023-05-07T01:34:23;15.23;;;8.38;;
18259;SDS011;9256;52.236;5.712;2023-05-07T01:36:53;14.77;;;8.18;;
18259;SDS011;9256;52.236;5.712;2023-05-07T01:39:23;13.93;;;8.35;;
18259;SDS011;9256;52.236;5.712;2023-05-07T01:41:53;13.55;;;7.85;;
18259;SDS011;9256;52.236;5.712;2023-05-07T01:44:21;13.45;;;7.80;;
18259;SDS011;9256;52.236;5.712;2023-05-07T01:46:48;13.77;;;8.32;;
18259;SDS011;9256;52.236;5.712;2023-05-07T01:49:16;15.13;;;8.55;;
18259;SDS011;9256;52.236;5.712;2023-05-07T01:51:43;16.35;;;8.88;;
18259;SDS011;9256;52.236;5.712;2023-05-07T01:54:10;14.25;;;8.20;;
18259;SDS011;9256;52.236;5.712;2023-05-07T01:56:37;15.45;;;8.80;;
18259;SDS011;9256;52.236;5.712;2023-05-07T01:59:05;14.38;;;8.52;;
18259;SDS011;9256;52.236;5.712;2023-05-07T02:01:32;14.32;;;8.57;;
18259;SDS011;9256;52.236;5.712;2023-05-07T02:03:59;15.77;;;9.18;;
18259;SDS011;9256;52.236;5.712;2023-05-07T02:06:26;15.90;;;9.30;;
18259;SDS011;9256;52.236;5.712;2023-05-07T02:08:53;15.43;;;9.20;;
18259;SDS011;9256;52.236;5.712;2023-05-07T02:11:20;16.55;;;9.13;;
18259;SDS011;9256;52.236;5.712;2023-05-07T02:13:47;16.67;;;9.85;;
18259;SDS011;9256;52.236;5.712;2023-05-07T02:16:15;17.58;;;9.13;;
18259;SDS011;9256;52.236;5.712;2023-05-07T02:18:42;16.10;;;9.63;;
18259;SDS011;9256;52.236;5.712;2023-05-07T02:21:09;16.10;;;9.32;;
18259;SDS011;9256;52.236;5.712;2023-05-07T02:23:36;15.32;;;8.77;;
18259;SDS011;9256;52.236;5.712;2023-05-07T02:26:03;13.82;;;8.63;;
18259;SDS011;9256;52.236;5.712;2023-05-07T02:28:30;14.15;;;8.82;;
18259;SDS011;9256;52.236;5.712;2023-05-07T02:31:00;18.02;;;9.40;;
18259;SDS011;9256;52.236;5.712;2023-05-07T02:33:30;15.52;;;9.55;;
18259;SDS011;9256;52.236;5.712;2023-05-07T02:35:59;16.73;;;10.15;;
18259;SDS011;9256;52.236;5.712;2023-05-07T02:38:32;15.93;;;9.32;;
18259;SDS011;9256;52.236;5.712;2023-05-07T02:40:58;18.33;;;11.77;;
18259;SDS011;9256;52.236;5.712;2023-05-07T02:43:25;17.48;;;10.52;;
18259;SDS011;9256;52.236;5.712;2023-05-07T02:45:59;16.70;;;9.85;;
18259;SDS011;9256;52.236;5.712;2023-05-07T02:48:27;17.33;;;9.82;;
18259;SDS011;9256;52.236;5.712;2023-05-07T02:50:56;18.15;;;10.07;;
18259;SDS011;9256;52.236;5.712;2023-05-07T02:53:23;18.50;;;10.45;;
18259;SDS011;9256;52.236;5.712;2023-05-07T02:55:51;18.30;;;10.50;;
18259;SDS011;9256;52.236;5.712;2023-05-07T02:58:18;17.88;;;10.82;;
18259;SDS011;9256;52.236;5.712;2023-05-07T03:00:45;19.85;;;11.00;;
18259;SDS011;9256;52.236;5.712;2023-05-07T03:03:12;19.48;;;10.77;;
18259;SDS011;9256;52.236;5.712;2023-05-07T03:05:41;24.45;;;11.82;;
18259;SDS011;9256;52.236;5.712;2023-05-07T03:08:08;20.85;;;11.27;;
18259;SDS011;9256;52.236;5.712;2023-05-07T03:10:35;20.85;;;11.75;;
18259;SDS011;9256;52.236;5.712;2023-05-07T03:13:02;22.75;;;13.52;;
18259;SDS011;9256;52.236;5.712;2023-05-07T03:15:30;21.02;;;12.50;;
18259;SDS011;9256;52.236;5.712;2023-05-07T03:17:57;22.90;;;13.65;;
18259;SDS011;9256;52.236;5.712;2023-05-07T03:20:24;23.65;;;12.45;;
18259;SDS011;9256;52.236;5.712;2023-05-07T03:22:52;22.65;;;11.98;;
18259;SDS011;9256;52.236;5.712;2023-05-07T03:25:19;23.20;;;12.40;;
18259;SDS011;9256;52.236;5.712;2023-05-07T03:27:46;21.20;;;11.77;;
18259;SDS011;9256;52.236;5.712;2023-05-07T03:30:12;22.95;;;13.35;;
18259;SDS011;9256;52.236;5.712;2023-05-07T03:32:39;23.63;;;12.68;;
18259;SDS011;9256;52.236;5.712;2023-05-07T03:35:07;26.00;;;12.55;;
18259;SDS011;9256;52.236;5.712;2023-05-07T03:37:34;24.08;;;13.45;;
18259;SDS011;9256;52.236;5.712;2023-05-07T03:40:02;27.73;;;13.90;;
18259;SDS011;9256;52.236;5.712;2023-05-07T03:42:30;24.27;;;13.38;;
18259;SDS011;9256;52.236;5.712;2023-05-07T03:44:56;24.02;;;13.07;;
18259;SDS011;9256;52.236;5.712;2023-05-07T03:47:23;24.80;;;14.18;;
18259;SDS011;9256;52.236;5.712;2023-05-07T03:49:50;25.73;;;13.63;;
18259;SDS011;9256;52.236;5.712;2023-05-07T03:52:19;24.48;;;12.73;;
18259;SDS011;9256;52.236;5.712;2023-05-07T03:54:50;24.95;;;13.82;;
18259;SDS011;9256;52.236;5.712;2023-05-07T03:57:19;22.95;;;12.93;;
18259;SDS011;9256;52.236;5.712;2023-05-07T03:59:46;25.67;;;13.48;;
18259;SDS011;9256;52.236;5.712;2023-05-07T04:02:12;29.80;;;14.60;;
18259;SDS011;9256;52.236;5.712;2023-05-07T04:04:39;27.38;;;14.63;;
18259;SDS011;9256;52.236;5.712;2023-05-07T04:07:06;29.55;;;15.23;;
18259;SDS011;9256;52.236;5.712;2023-05-07T04:09:33;28.58;;;15.82;;
18259;SDS011;9256;52.236;5.712;2023-05-07T04:12:00;32.55;;;17.83;;
18259;SDS011;9256;52.236;5.712;2023-05-07T04:14:28;36.20;;;18.40;;
18259;SDS011;9256;52.236;5.712;2023-05-07T04:16:57;36.88;;;18.30;;
18259;SDS011;9256;52.236;5.712;2023-05-07T04:19:24;36.60;;;18.48;;
18259;SDS011;9256;52.236;5.712;2023-05-07T04:21:51;34.85;;;17.95;;
18259;SDS011;9256;52.236;5.712;2023-05-07T04:24:18;36.60;;;19.27;;
18259;SDS011;9256;52.236;5.712;2023-05-07T04:26:45;39.08;;;19.33;;
18259;SDS011;9256;52.236;5.712;2023-05-07T04:29:12;39.38;;;19.83;;
18259;SDS011;9256;52.236;5.712;2023-05-07T04:31:40;39.08;;;19.95;;
18259;SDS011;9256;52.236;5.712;2023-05-07T04:34:09;38.10;;;19.58;;
18259;SDS011;9256;52.236;5.712;2023-05-07T04:36:36;39.08;;;19.17;;
18259;SDS011;9256;52.236;5.712;2023-05-07T04:39:03;36.20;;;19.45;;
18259;SDS011;9256;52.236;5.712;2023-05-07T04:41:30;38.97;;;19.35;;
18259;SDS011;9256;52.236;5.712;2023-05-07T04:43:57;39.15;;;19.83;;
18259;SDS011;9256;52.236;5.712;2023-05-07T04:46:25;39.70;;;19.20;;
18259;SDS011;9256;52.236;5.712;2023-05-07T04:48:53;42.10;;;22.27;;
18259;SDS011;9256;52.236;5.712;2023-05-07T04:51:20;37.83;;;22.77;;
18259;SDS011;9256;52.236;5.712;2023-05-07T04:53:47;37.15;;;19.73;;
18259;SDS011;9256;52.236;5.712;2023-05-07T04:56:14;35.67;;;19.92;;
18259;SDS011;9256;52.236;5.712;2023-05-07T04:58:41;36.15;;;19.25;;
18259;SDS011;9256;52.236;5.712;2023-05-07T05:01:08;38.03;;;20.15;;
18259;SDS011;9256;52.236;5.712;2023-05-07T05:03:35;34.70;;;18.42;;
18259;SDS011;9256;52.236;5.712;2023-05-07T05:06:04;37.58;;;19.42;;
18259;SDS011;9256;52.236;5.712;2023-05-07T05:08:31;37.13;;;19.50;;
18259;SDS011;9256;52.236;5.712;2023-05-07T05:10:58;33.97;;;18.55;;
18259;SDS011;9256;52.236;5.712;2023-05-07T05:13:26;39.65;;;20.10;;
18259;SDS011;9256;52.236;5.712;2023-05-07T05:15:53;36.85;;;19.38;;
18259;SDS011;9256;52.236;5.712;2023-05-07T05:18:21;39.05;;;19.83;;
18259;SDS011;9256;52.236;5.712;2023-05-07T05:20:47;38.95;;;20.30;;
18259;SDS011;9256;52.236;5.712;2023-05-07T05:23:16;38.17;;;20.02;;
18259;SDS011;9256;52.236;5.712;2023-05-07T05:25:43;34.95;;;19.45;;
18259;SDS011;9256;52.236;5.712;2023-05-07T05:28:10;36.40;;;19.60;;
18259;SDS011;9256;52.236;5.712;2023-05-07T05:30:37;41.38;;;20.13;;
18259;SDS011;9256;52.236;5.712;2023-05-07T05:33:03;36.47;;;19.50;;
18259;SDS011;9256;52.236;5.712;2023-05-07T05:35:30;39.03;;;20.83;;
18259;SDS011;9256;52.236;5.712;2023-05-07T05:37:57;38.40;;;19.60;;
18259;SDS011;9256;52.236;5.712;2023-05-07T05:40:26;41.25;;;20.27;;
18259;SDS011;9256;52.236;5.712;2023-05-07T05:42:52;36.03;;;19.02;;
18259;SDS011;9256;52.236;5.712;2023-05-07T05:45:19;39.85;;;20.02;;
18259;SDS011;9256;52.236;5.712;2023-05-07T05:47:46;38.50;;;19.48;;
18259;SDS011;9256;52.236;5.712;2023-05-07T05:50:13;36.50;;;18.95;;
18259;SDS011;9256;52.236;5.712;2023-05-07T05:52:40;39.17;;;20.80;;
18259;SDS011;9256;52.236;5.712;2023-05-07T05:55:08;37.92;;;20.23;;
18259;SDS011;9256;52.236;5.712;2023-05-07T05:57:36;38.83;;;19.88;;
18259;SDS011;9256;52.236;5.712;2023-05-07T06:00:04;74.80;;;28.02;;
18259;SDS011;9256;52.236;5.712;2023-05-07T06:02:32;45.05;;;21.80;;
18259;SDS011;9256;52.236;5.712;2023-05-07T06:04:59;44.63;;;23.35;;
18259;SDS011;9256;52.236;5.712;2023-05-07T06:07:26;46.38;;;23.45;;
18259;SDS011;9256;52.236;5.712;2023-05-07T06:09:53;41.75;;;20.80;;
18259;SDS011;9256;52.236;5.712;2023-05-07T06:12:20;39.85;;;20.80;;
18259;SDS011;9256;52.236;5.712;2023-05-07T06:14:48;43.40;;;23.67;;
18259;SDS011;9256;52.236;5.712;2023-05-07T06:17:15;36.03;;;19.58;;
18259;SDS011;9256;52.236;5.712;2023-05-07T06:19:42;34.63;;;19.25;;
18259;SDS011;9256;52.236;5.712;2023-05-07T06:22:09;40.67;;;20.58;;
18259;SDS011;9256;52.236;5.712;2023-05-07T06:24:36;38.00;;;21.33;;
18259;SDS011;9256;52.236;5.712;2023-05-07T06:27:03;35.53;;;18.38;;
18259;SDS011;9256;52.236;5.712;2023-05-07T06:29:30;37.90;;;19.17;;
18259;SDS011;9256;52.236;5.712;2023-05-07T06:32:07;38.00;;;18.85;;
18259;SDS011;9256;52.236;5.712;2023-05-07T06:34:34;42.30;;;18.80;;
18259;SDS011;9256;52.236;5.712;2023-05-07T06:37:00;36.53;;;18.23;;
18259;SDS011;9256;52.236;5.712;2023-05-07T06:39:27;37.65;;;18.67;;
18259;SDS011;9256;52.236;5.712;2023-05-07T06:41:54;36.90;;;17.70;;
18259;SDS011;9256;52.236;5.712;2023-05-07T06:44:21;35.75;;;17.75;;
18259;SDS011;9256;52.236;5.712;2023-05-07T06:46:48;39.40;;;18.70;;
18259;SDS011;9256;52.236;5.712;2023-05-07T06:49:17;34.08;;;17.30;;
18259;SDS011;9256;52.236;5.712;2023-05-07T06:51:44;37.90;;;17.52;;
18259;SDS011;9256;52.236;5.712;2023-05-07T06:54:11;37.22;;;17.92;;
18259;SDS011;9256;52.236;5.712;2023-05-07T06:56:38;38.25;;;19.02;;
18259;SDS011;9256;52.236;5.712;2023-05-07T06:59:06;37.38;;;19.00;;
18259;SDS011;9256;52.236;5.712;2023-05-07T07:01:33;36.15;;;18.40;;
18259;SDS011;9256;52.236;5.712;2023-05-07T07:04:00;35.35;;;17.98;;
18259;SDS011;9256;52.236;5.712;2023-05-07T07:06:28;38.28;;;18.48;;
18259;SDS011;9256;52.236;5.712;2023-05-07T07:08:56;36.30;;;18.02;;
18259;SDS011;9256;52.236;5.712;2023-05-07T07:11:23;36.70;;;17.85;;
18259;SDS011;9256;52.236;5.712;2023-05-07T07:13:50;36.53;;;18.15;;
18259;SDS011;9256;52.236;5.712;2023-05-07T07:16:19;33.38;;;17.85;;
18259;SDS011;9256;52.236;5.712;2023-05-07T07:18:46;34.47;;;17.20;;
18259;SDS011;9256;52.236;5.712;2023-05-07T07:21:13;32.90;;;17.42;;
18259;SDS011;9256;52.236;5.712;2023-05-07T07:23:41;34.50;;;17.10;;
18259;SDS011;9256;52.236;5.712;2023-05-07T07:26:08;33.05;;;18.73;;
18259;SDS011;9256;52.236;5.712;2023-05-07T07:28:35;31.27;;;17.00;;
18259;SDS011;9256;52.236;5.712;2023-05-07T07:31:08;30.30;;;15.88;;
18259;SDS011;9256;52.236;5.712;2023-05-07T07:33:35;30.15;;;15.88;;
18259;SDS011;9256;52.236;5.712;2023-05-07T07:36:02;28.23;;;14.82;;
18259;SDS011;9256;52.236;5.712;2023-05-07T07:38:31;31.55;;;16.13;;
18259;SDS011;9256;52.236;5.712;2023-05-07T07:40:59;28.75;;;15.27;;
18259;SDS011;9256;52.236;5.712;2023-05-07T07:43:26;28.77;;;15.18;;
18259;SDS011;9256;52.236;5.712;2023-05-07T07:45:53;27.02;;;15.10;;
18259;SDS011;9256;52.236;5.712;2023-05-07T07:48:20;30.73;;;15.32;;
18259;SDS011;9256;52.236;5.712;2023-05-07T07:50:48;27.23;;;14.60;;
18259;SDS011;9256;52.236;5.712;2023-05-07T07:53:16;29.48;;;14.60;;
18259;SDS011;9256;52.236;5.712;2023-05-07T07:55:43;29.60;;;15.82;;
18259;SDS011;9256;52.236;5.712;2023-05-07T07:58:11;30.10;;;15.70;;
18259;SDS011;9256;52.236;5.712;2023-05-07T08:00:38;28.90;;;15.52;;
18259;SDS011;9256;52.236;5.712;2023-05-07T08:03:05;31.65;;;15.82;;
18259;SDS011;9256;52.236;5.712;2023-05-07T08:05:35;29.67;;;15.45;;
18259;SDS011;9256;52.236;5.712;2023-05-07T08:08:03;30.73;;;16.15;;
18259;SDS011;9256;52.236;5.712;2023-05-07T08:10:30;31.33;;;15.95;;
18259;SDS011;9256;52.236;5.712;2023-05-07T08:12:59;28.95;;;15.48;;
18259;SDS011;9256;52.236;5.712;2023-05-07T08:15:29;32.28;;;19.08;;
18259;SDS011;9256;52.236;5.712;2023-05-07T08:17:57;30.42;;;15.82;;
18259;SDS011;9256;52.236;5.712;2023-05-07T08:20:25;31.85;;;16.88;;
18259;SDS011;9256;52.236;5.712;2023-05-07T08:22:52;33.85;;;16.25;;
18259;SDS011;9256;52.236;5.712;2023-05-07T08:25:19;32.20;;;16.35;;
18259;SDS011;9256;52.236;5.712;2023-05-07T08:27:45;32.67;;;16.63;;
18259;SDS011;9256;52.236;5.712;2023-05-07T08:30:13;30.55;;;15.77;;
18259;SDS011;9256;52.236;5.712;2023-05-07T08:32:41;31.10;;;15.65;;
18259;SDS011;9256;52.236;5.712;2023-05-07T08:35:08;28.83;;;15.95;;
18259;SDS011;9256;52.236;5.712;2023-05-07T08:37:35;31.50;;;16.27;;
18259;SDS011;9256;52.236;5.712;2023-05-07T08:40:03;35.28;;;16.48;;
18259;SDS011;9256;52.236;5.712;2023-05-07T08:42:31;29.55;;;16.48;;
18259;SDS011;9256;52.236;5.712;2023-05-07T08:45:01;31.63;;;15.95;;
18259;SDS011;9256;52.236;5.712;2023-05-07T08:47:33;29.05;;;15.95;;
18259;SDS011;9256;52.236;5.712;2023-05-07T08:50:07;31.48;;;16.27;;
18259;SDS011;9256;52.236;5.712;2023-05-07T08:52:34;31.52;;;16.02;;
18259;SDS011;9256;52.236;5.712;2023-05-07T08:55:02;31.27;;;16.05;;
18259;SDS011;9256;52.236;5.712;2023-05-07T08:57:29;29.45;;;15.60;;
18259;SDS011;9256;52.236;5.712;2023-05-07T08:59:56;33.13;;;16.25;;
18259;SDS011;9256;52.236;5.712;2023-05-07T09:02:23;34.10;;;17.05;;
18259;SDS011;9256;52.236;5.712;2023-05-07T09:04:50;33.10;;;17.50;;
18259;SDS011;9256;52.236;5.712;2023-05-07T09:07:19;34.35;;;16.35;;
18259;SDS011;9256;52.236;5.712;2023-05-07T09:09:47;33.45;;;16.85;;
18259;SDS011;9256;52.236;5.712;2023-05-07T09:12:14;32.75;;;16.98;;
18259;SDS011;9256;52.236;5.712;2023-05-07T09:14:41;33.95;;;17.17;;
18259;SDS011;9256;52.236;5.712;2023-05-07T09:17:08;32.88;;;16.60;;
18259;SDS011;9256;52.236;5.712;2023-05-07T09:19:35;35.53;;;18.15;;
18259;SDS011;9256;52.236;5.712;2023-05-07T09:22:02;36.10;;;18.10;;
18259;SDS011;9256;52.236;5.712;2023-05-07T09:24:31;32.92;;;17.70;;
18259;SDS011;9256;52.236;5.712;2023-05-07T09:27:01;32.25;;;17.55;;
18259;SDS011;9256;52.236;5.712;2023-05-07T09:29:28;34.47;;;17.80;;
18259;SDS011;9256;52.236;5.712;2023-05-07T09:32:00;36.67;;;18.85;;
18259;SDS011;9256;52.236;5.712;2023-05-07T09:34:28;33.25;;;17.70;;
18259;SDS011;9256;52.236;5.712;2023-05-07T09:36:55;34.00;;;17.85;;
18259;SDS011;9256;52.236;5.712;2023-05-07T09:39:22;32.08;;;17.33;;
18259;SDS011;9256;52.236;5.712;2023-05-07T09:41:51;29.10;;;16.27;;
18259;SDS011;9256;52.236;5.712;2023-05-07T09:44:20;30.48;;;16.55;;
18259;SDS011;9256;52.236;5.712;2023-05-07T09:46:49;33.13;;;17.83;;
18259;SDS011;9256;52.236;5.712;2023-05-07T09:49:20;28.00;;;16.52;;
18259;SDS011;9256;52.236;5.712;2023-05-07T09:51:50;31.50;;;16.02;;
18259;SDS011;9256;52.236;5.712;2023-05-07T09:54:18;27.13;;;14.98;;
18259;SDS011;9256;52.236;5.712;2023-05-07T09:56:45;27.02;;;14.40;;
18259;SDS011;9256;52.236;5.712;2023-05-07T09:59:16;25.73;;;14.38;;
18259;SDS011;9256;52.236;5.712;2023-05-07T10:01:43;29.80;;;14.48;;
18259;SDS011;9256;52.236;5.712;2023-05-07T10:04:11;29.77;;;15.00;;
18259;SDS011;9256;52.236;5.712;2023-05-07T10:06:38;27.00;;;16.05;;
18259;SDS011;9256;52.236;5.712;2023-05-07T10:09:06;27.52;;;14.80;;
18259;SDS011;9256;52.236;5.712;2023-05-07T10:11:34;28.20;;;14.50;;
18259;SDS011;9256;52.236;5.712;2023-05-07T10:14:02;25.90;;;14.23;;
18259;SDS011;9256;52.236;5.712;2023-05-07T10:16:32;26.52;;;14.55;;
18259;SDS011;9256;52.236;5.712;2023-05-07T10:19:02;28.13;;;15.05;;
18259;SDS011;9256;52.236;5.712;2023-05-07T10:21:29;31.95;;;16.15;;
18259;SDS011;9256;52.236;5.712;2023-05-07T10:23:58;28.98;;;14.95;;
18259;SDS011;9256;52.236;5.712;2023-05-07T10:26:31;36.03;;;17.67;;
18259;SDS011;9256;52.236;5.712;2023-05-07T10:29:02;32.80;;;17.17;;
18259;SDS011;9256;52.236;5.712;2023-05-07T10:31:39;64.30;;;28.23;;
18259;SDS011;9256;52.236;5.712;2023-05-07T10:34:20;45.70;;;20.77;;
18259;SDS011;9256;52.236;5.712;2023-05-07T10:36:50;31.80;;;16.35;;
18259;SDS011;9256;52.236;5.712;2023-05-07T10:39:19;31.77;;;15.90;;
18259;SDS011;9256;52.236;5.712;2023-05-07T10:41:46;32.10;;;15.60;;
18259;SDS011;9256;52.236;5.712;2023-05-07T10:44:24;30.80;;;15.50;;
18259;SDS011;9256;52.236;5.712;2023-05-07T10:47:07;30.70;;;15.25;;
18259;SDS011;9256;52.236;5.712;2023-05-07T10:49:35;33.47;;;17.02;;
18259;SDS011;9256;52.236;5.712;2023-05-07T10:52:13;28.00;;;15.52;;
18259;SDS011;9256;52.236;5.712;2023-05-07T10:54:41;27.65;;;14.68;;
18259;SDS011;9256;52.236;5.712;2023-05-07T11:00:04;28.38;;;15.30;;
18259;SDS011;9256;52.236;5.712;2023-05-07T11:03:09;25.48;;;13.82;;
18259;SDS011;9256;52.236;5.712;2023-05-07T11:05:36;27.17;;;14.65;;
18259;SDS011;9256;52.236;5.712;2023-05-07T11:08:04;25.80;;;14.38;;
18259;SDS011;9256;52.236;5.712;2023-05-07T11:10:47;24.02;;;13.27;;
18259;SDS011;9256;52.236;5.712;2023-05-07T11:13:16;24.50;;;13.98;;
18259;SDS011;9256;52.236;5.712;2023-05-07T11:15:44;24.80;;;13.02;;
18259;SDS011;9256;52.236;5.712;2023-05-07T11:18:14;23.35;;;12.57;;
18259;SDS011;9256;52.236;5.712;2023-05-07T11:23:54;21.30;;;11.63;;
18259;SDS011;9256;52.236;5.712;2023-05-07T11:26:25;19.45;;;11.27;;
18259;SDS011;9256;52.236;5.712;2023-05-07T11:28:54;22.80;;;12.05;;
18259;SDS011;9256;52.236;5.712;2023-05-07T11:31:23;23.20;;;12.40;;
18259;SDS011;9256;52.236;5.712;2023-05-07T11:33:53;21.42;;;12.00;;
18259;SDS011;9256;52.236;5.712;2023-05-07T11:36:22;23.02;;;13.95;;
18259;SDS011;9256;52.236;5.712;2023-05-07T11:38:50;23.48;;;13.05;;
18259;SDS011;9256;52.236;5.712;2023-05-07T11:41:17;19.35;;;11.60;;
18259;SDS011;9256;52.236;5.712;2023-05-07T11:43:58;23.25;;;12.07;;
18259;SDS011;9256;52.236;5.712;2023-05-07T11:46:26;22.50;;;12.05;;
18259;SDS011;9256;52.236;5.712;2023-05-07T11:48:55;18.85;;;11.38;;
18259;SDS011;9256;52.236;5.712;2023-05-07T11:51:23;23.77;;;12.05;;
18259;SDS011;9256;52.236;5.712;2023-05-07T11:53:52;21.77;;;11.95;;
18259;SDS011;9256;52.236;5.712;2023-05-07T11:56:19;25.50;;;11.90;;
18259;SDS011;9256;52.236;5.712;2023-05-07T11:58:47;20.55;;;11.98;;
18259;SDS011;9256;52.236;5.712;2023-05-07T12:01:14;21.73;;;11.98;;
18259;SDS011;9256;52.236;5.712;2023-05-07T12:03:43;19.00;;;10.77;;
18259;SDS011;9256;52.236;5.712;2023-05-07T12:06:13;23.75;;;11.25;;
18259;SDS011;9256;52.236;5.712;2023-05-07T12:08:41;20.73;;;11.43;;
18259;SDS011;9256;52.236;5.712;2023-05-07T12:11:09;22.23;;;11.52;;
18259;SDS011;9256;52.236;5.712;2023-05-07T12:13:41;23.13;;;11.50;;
18259;SDS011;9256;52.236;5.712;2023-05-07T12:16:08;22.20;;;12.10;;
18259;SDS011;9256;52.236;5.712;2023-05-07T12:18:35;21.02;;;11.27;;
18259;SDS011;9256;52.236;5.712;2023-05-07T12:21:04;21.88;;;12.18;;
18259;SDS011;9256;52.236;5.712;2023-05-07T12:23:33;22.13;;;11.57;;
18259;SDS011;9256;52.236;5.712;2023-05-07T12:26:01;21.48;;;11.77;;
18259;SDS011;9256;52.236;5.712;2023-05-07T12:28:29;23.75;;;12.45;;
18259;SDS011;9256;52.236;5.712;2023-05-07T12:30:56;28.35;;;13.65;;
18259;SDS011;9256;52.236;5.712;2023-05-07T12:33:24;22.73;;;12.30;;
18259;SDS011;9256;52.236;5.712;2023-05-07T12:35:53;114.65;;;44.22;;
18259;SDS011;9256;52.236;5.712;2023-05-07T12:38:21;25.90;;;13.02;;
18259;SDS011;9256;52.236;5.712;2023-05-07T12:40:50;26.30;;;14.10;;
18259;SDS011;9256;52.236;5.712;2023-05-07T12:43:20;55.70;;;21.88;;
18259;SDS011;9256;52.236;5.712;2023-05-07T12:45:50;34.10;;;15.77;;
18259;SDS011;9256;52.236;5.712;2023-05-07T12:48:20;89.00;;;29.30;;
18259;SDS011;9256;52.236;5.712;2023-05-07T12:50:49;43.28;;;18.20;;
18259;SDS011;9256;52.236;5.712;2023-05-07T12:53:16;25.08;;;12.70;;
18259;SDS011;9256;52.236;5.712;2023-05-07T12:55:46;56.85;;;20.30;;
18259;SDS011;9256;52.236;5.712;2023-05-07T12:58:16;65.03;;;22.65;;
18259;SDS011;9256;52.236;5.712;2023-05-07T13:00:45;37.17;;;15.63;;
18259;SDS011;9256;52.236;5.712;2023-05-07T13:03:20;71.38;;;28.05;;
18259;SDS011;9256;52.236;5.712;2023-05-07T13:05:49;55.53;;;20.85;;
18259;SDS011;9256;52.236;5.712;2023-05-07T13:08:29;37.47;;;16.77;;
18259;SDS011;9256;52.236;5.712;2023-05-07T13:10:58;61.40;;;22.40;;
18259;SDS011;9256;52.236;5.712;2023-05-07T13:13:29;37.42;;;15.93;;
18259;SDS011;9256;52.236;5.712;2023-05-07T13:15:56;35.10;;;16.42;;
18259;SDS011;9256;52.236;5.712;2023-05-07T13:18:24;27.45;;;13.65;;
18259;SDS011;9256;52.236;5.712;2023-05-07T13:20:51;50.47;;;21.40;;
18259;SDS011;9256;52.236;5.712;2023-05-07T13:23:18;30.25;;;14.50;;
18259;SDS011;9256;52.236;5.712;2023-05-07T13:25:45;23.43;;;13.87;;
18259;SDS011;9256;52.236;5.712;2023-05-07T13:28:12;21.95;;;11.63;;
18259;SDS011;9256;52.236;5.712;2023-05-07T13:30:40;18.30;;;9.98;;
18259;SDS011;9256;52.236;5.712;2023-05-07T13:33:07;23.42;;;11.95;;
18259;SDS011;9256;52.236;5.712;2023-05-07T13:35:35;25.95;;;13.18;;
18259;SDS011;9256;52.236;5.712;2023-05-07T13:38:02;20.15;;;10.68;;
18259;SDS011;9256;52.236;5.712;2023-05-07T13:40:29;21.80;;;10.93;;
18259;SDS011;9256;52.236;5.712;2023-05-07T13:42:57;27.13;;;14.02;;
18259;SDS011;9256;52.236;5.712;2023-05-07T13:45:27;19.40;;;10.30;;
18259;SDS011;9256;52.236;5.712;2023-05-07T13:47:56;22.38;;;13.40;;
18259;SDS011;9256;52.236;5.712;2023-05-07T13:50:23;20.63;;;11.32;;
18259;SDS011;9256;52.236;5.712;2023-05-07T13:52:51;26.58;;;13.82;;
18259;SDS011;9256;52.236;5.712;2023-05-07T13:55:19;20.65;;;12.93;;
18259;SDS011;9256;52.236;5.712;2023-05-07T13:57:51;19.83;;;11.55;;
18259;SDS011;9256;52.236;5.712;2023-05-07T14:00:21;20.08;;;11.02;;
18259;SDS011;9256;52.236;5.712;2023-05-07T14:02:49;20.17;;;10.95;;
18259;SDS011;9256;52.236;5.712;2023-05-07T14:05:17;20.77;;;11.35;;
18259;SDS011;9256;52.236;5.712;2023-05-07T14:07:44;21.75;;;11.38;;
18259;SDS011;9256;52.236;5.712;2023-05-07T14:10:12;23.17;;;11.90;;
18259;SDS011;9256;52.236;5.712;2023-05-07T14:12:39;33.53;;;15.95;;
18259;SDS011;9256;52.236;5.712;2023-05-07T14:15:06;23.25;;;11.63;;
18259;SDS011;9256;52.236;5.712;2023-05-07T14:17:34;24.77;;;13.88;;
18259;SDS011;9256;52.236;5.712;2023-05-07T14:20:01;22.83;;;12.60;;
18259;SDS011;9256;52.236;5.712;2023-05-07T14:22:29;22.23;;;12.20;;
18259;SDS011;9256;52.236;5.712;2023-05-07T14:24:56;24.15;;;12.40;;
18259;SDS011;9256;52.236;5.712;2023-05-07T14:27:23;27.40;;;13.15;;
18259;SDS011;9256;52.236;5.712;2023-05-07T14:29:50;21.10;;;11.75;;
18259;SDS011;9256;52.236;5.712;2023-05-07T14:32:17;21.55;;;11.90;;
18259;SDS011;9256;52.236;5.712;2023-05-07T14:34:44;22.75;;;12.23;;
18259;SDS011;9256;52.236;5.712;2023-05-07T14:37:12;24.98;;;13.60;;
18259;SDS011;9256;52.236;5.712;2023-05-07T14:39:41;25.20;;;13.38;;
18259;SDS011;9256;52.236;5.712;2023-05-07T14:42:07;25.85;;;13.13;;
18259;SDS011;9256;52.236;5.712;2023-05-07T14:44:34;27.73;;;13.88;;
18259;SDS011;9256;52.236;5.712;2023-05-07T14:47:01;27.00;;;13.50;;
18259;SDS011;9256;52.236;5.712;2023-05-07T14:49:28;26.42;;;13.00;;